Weather observations for the past three days for
Fort Pierce, St. Lucie County International Airport
Imperial (Metric)
Date Time (edt) Wind (mph) Vis. (mi.) Weather Sky Cond. Temperature (ºF) Relative Humidity Wind Chill (°F) Heat Index (°F) Pressure Precipitation (in)
Air Dwpt 6 hour altimeter (in) sea level (mb) 1 hr 3 hr 6 hr
Max. Min.
09 08:53 SW 5 10.00 Fair CLR 81 73 77% 86 29.95 1014.1
09 07:53 SW 6 8.00 Fair CLR 75.9 75 75.9 70 97% 75 29.94 1013.7
09 06:53 SW 3 5.00 Fog/Mist CLR 73.9 73 97% 29.93 1013.3
09 05:53 SE 5 3.00 Fog/Mist CLR 71.1 70 96% 29.92 1013.0
09 04:53 Calm 4.00 Fog/Mist BKN050 BKN060 72 71.1 97% 29.92 1013.3
09 03:53 S 3 7.00 Fair CLR 73.9 72 94% 29.92 1013.1
09 02:53 Calm 8.00 Fair CLR 73.9 72 94% 29.93 1013.4
09 01:53 SW 6 8.00 A Few Clouds FEW013 73.9 72 80.1 73.9 94% 29.94 1013.8
09 00:53 SW 6 10.00 Fair CLR 75.9 72 88% 76 29.95 1014.2
08 23:53 SE 8 10.00 Fair CLR 78.1 73 85% 81 29.95 1014.1
08 22:53 SE 7 10.00 Fair CLR 78.1 73 85% 81 29.95 1014.2
08 21:53 SE 9 10.00 Fair CLR 78.1 73 85% 81 29.94 1013.8
08 20:53 SE 9 10.00 Fair CLR 79 73 82% 82 29.93 1013.6
08 19:53 SE 9 10.00 Fair CLR 80.1 73 84.9 80.1 79% 84 29.91 1012.8
08 18:53 E 12 10.00 Fair CLR 81 72 74% 85 29.9 1012.3
08 17:53 E 13 10.00 Fair CLR 82.9 72 70% 88 29.9 1012.3
08 16:53 E 13 10.00 Fair CLR 84 72 67% 90 29.91 1012.8
08 15:53 E 14 10.00 Fair CLR 84 73 70% 90 29.93 1013.4
08 14:53 NE 14 G 21 10.00 Fair CLR 84 71.1 65% 89 29.95 1014.3
08 13:53 E 13 9.00 Fair CLR 82.9 72 86 70 70% 88 29.97 1014.6
08 12:53 NE 7 10.00 Partly Cloudy SCT041 84.9 71.1 63% 90 29.98 1015.2
08 11:53 E 7 10.00 Partly Cloudy SCT028 82.9 71.1 67% 88 30 1015.8
08 10:53 Calm 10.00 Partly Cloudy SCT028 84 70 63% 88 30.01 1016.2
08 09:53 N 7 10.00 Partly Cloudy SCT022 81 70 69% 84 30.01 1016.1
08 08:53 NW 3 10.00 Partly Cloudy SCT022 77 69.1 77% 79 30.01 1016.0
08 07:53 W 3 10.00 Mostly Cloudy BKN017 69.1 64.9 69.1 62.1 87% 29.99 1015.5
08 06:53 W 3 10.00 Fair CLR 63 61 93% 29.96 1014.6
08 05:53 Calm 10.00 Fair CLR 63 60.1 90% 29.94 1013.8
08 04:53 Calm 10.00 Fair CLR 64 61 90% 29.94 1013.8
08 03:53 NW 3 10.00 Fair CLR 66 61 84% 29.94 1013.8
08 02:53 Calm 10.00 Fair CLR 68 62.1 81% 29.94 1013.9
08 01:53 Calm 10.00 Fair CLR 68 63 82 68 84% 29.96 1014.4
08 00:53 W 3 10.00 Fair CLR 72 66 82% 29.96 1014.5
07 23:53 SW 8 10.00 Fair CLR 75.9 68 77% 77 29.96 1014.4
07 22:53 S 6 10.00 Fair CLR 78.1 68 71% 80 29.95 1014.1
07 21:53 S 8 10.00 Fair CLR 79 70 74% 82 29.94 1013.7
07 20:53 SE 8 10.00 Fair CLR 80.1 71.1 74% 84 29.93 1013.4
07 19:53 SE 12 10.00 Fair CLR 81 72 93 81 74% 85 29.93 1013.4
07 18:53 SE 14 10.00 Fair CLR 82.9 71.1 67% 88 29.92 1013.1
07 17:53 SE 14 10.00 Fair CLR 86 72 63% 92 29.91 1012.9
07 16:53 SE 12 10.00 Fair CLR 90 70 52% 95 29.92 1013.0
07 15:53 SW 7 10.00 Fair CLR 91.9 59 33% 91 29.93 1013.5
07 14:53 SW 10 10.00 Fair CLR 91.9 63 38% 93 29.96 1014.5
07 13:53 SW 12 G 17 10.00 Fair CLR 91 64.9 91.9 70 42% 93 29.98 1015.3
07 12:53 SW 6 10.00 Partly Cloudy SCT044 88 69.1 54% 92 29.99 1015.4
07 11:53 SW 9 10.00 Fair CLR 87.1 68 53% 91 30.01 1016.1
07 10:53 W 6 10.00 Fair CLR 84 68 59% 87 30.02 1016.6
07 09:53 SW 7 10.00 Fair CLR 82 66 58% 84 30.03 1016.8
07 08:53 SW 6 10.00 Fair CLR 78.1 69.1 74% 80 30.03 1016.7
07 07:53 Calm 10.00 Fair CLR 70 68 70 62.1 93% 30.02 1016.6
07 06:53 Calm 5.00 Fog/Mist CLR 64 64 100% 30.01 1016.3
07 05:53 Calm 10.00 Fair CLR 63 63 100% 29.99 1015.4
07 04:53 Calm 10.00 Fair CLR 64 63 96% 29.97 1014.7
07 03:53 Calm 10.00 Fair CLR 64.9 63 93% 29.97 1014.8
07 02:53 NW 3 10.00 Fair CLR 66.9 64.9 93% 29.99 1015.6
07 01:53 SW 3 10.00 Fair CLR 70 66 78.1 70 87% 30 1015.9
07 00:53 SE 7 10.00 Fair CLR 75.9 66 72% 77 30.01 1016.2
06 23:53 SE 8 10.00 Fair CLR 75 66.9 76% 76 30.01 1016.3
06 22:53 E 8 10.00 Fair CLR 75.9 68 77% 77 30.02 1016.4
06 21:53 E 8 10.00 Fair CLR 77 66 69% 79 30.02 1016.4
06 20:53 SE 8 10.00 Fair CLR 77 66 69% 79 30.01 1016.3
06 19:53 E 9 10.00 Fair CLR 78.1 64 86 78.1 62% 80 30.01 1016.0
06 18:53 E 14 10.00 Fair CLR 81 62.1 53% 82 30.01 1016.1
06 17:53 E 14 10.00 Fair CLR 82.9 64.9 55% 85 30.01 1016.0
06 16:53 E 10 10.00 Fair CLR 84 66 55% 86 30.01 1016.0
06 15:53 SE 12 10.00 Fair CLR 84.9 64 50% 86 30.01 1016.3
06 14:53 E 12 10.00 Fair CLR 86 57 37% 85 30.03 1016.8
06 13:53 SE 9 10.00 Fair CLR 84.9 63 86 70 48% 86 30.04 1017.3
06 12:53 SE 12 10.00 Fair CLR 84 64 51% 85 30.05 1017.4
06 11:53 SE 9 10.00 Fair CLR 84 63 49% 85 30.06 1017.8
06 10:53 E 10 10.00 Fair CLR 82 66.9 60% 85 30.05 1017.6
06 09:53 E 8 10.00 Fair CLR 80.1 71.1 74% 84 30.05 1017.4
Date Time (edt) Wind (mph) Vis. (mi.) Weather Sky Cond. Air Dwpt Max. Min. Relative Humidity Wind Chill (°F) Heat Index (°F) altimeter (in) sea level (mb) 1 hr 3 hr 6 hr
6 hour
Temperature (ºF) Pressure Precipitation (in)